Time;durP1;ratioP1;P1;durP2;ratioP2;P2;SDS_P1;SDS_P2;PMS_P1;PMS_P2;Temp;Humidity;BMP_temperature;BMP_pressure;BME280_temperature;BME280_humidity;BME280_pressure;Samples;Min_cycle;Max_cycle;Signal;HPM_P1;HPM_P2
2023/10/16 00:01:18;;;;;;;7.30;2.57;;;;;;;5.79;85.28;99793.03;4208807;28;20299;-75
2023/10/16 00:03:45;;;;;;;7.87;2.20;;;;;;;5.72;85.50;99796.25;4227028;28;20322;-73
2023/10/16 00:06:12;;;;;;;8.63;1.80;;;;;;;5.66;85.57;99786.03;4209296;28;23528;-75
2023/10/16 00:08:48;;;;;;;12.97;1.90;;;;;;;5.64;85.87;99801.44;4221350;28;21569;-71
2023/10/16 00:11:24;;;;;;;9.23;2.50;;;;;;;5.52;86.25;99791.75;4203571;28;20312;-72
2023/10/16 00:13:52;;;;;;;11.10;2.13;;;;;;;5.57;86.18;99805.63;4211577;28;20352;-72
2023/10/16 00:16:21;;;;;;;6.80;2.10;;;;;;;5.58;86.30;99801.97;4213198;28;22058;-72
2023/10/16 00:18:50;;;;;;;7.57;2.33;;;;;;;5.60;86.28;99800.00;4205766;28;20625;-75
2023/10/16 00:21:17;;;;;;;7.47;2.10;;;;;;;5.55;86.30;99797.72;4209631;28;20703;-72
2023/10/16 00:23:45;;;;;;;7.77;2.17;;;;;;;5.52;86.73;99808.69;4217173;28;20580;-73
2023/10/16 00:26:19;;;;;;;8.27;2.70;;;;;;;5.51;86.94;99809.66;4192907;28;20246;-72
2023/10/16 00:28:47;;;;;;;8.90;2.40;;;;;;;5.56;86.86;99806.59;4211146;28;21377;-72
2023/10/16 00:31:23;;;;;;;10.27;2.67;;;;;;;5.52;87.11;99810.53;4208494;28;20232;-72
2023/10/16 00:33:51;;;;;;;9.23;2.33;;;;;;;5.60;86.77;99809.88;4215697;28;20244;-71
2023/10/16 00:36:18;;;;;;;5.57;2.30;;;;;;;5.55;86.86;99811.13;4229394;28;22334;-72
2023/10/16 00:38:51;;;;;;;7.70;2.30;;;;;;;5.58;86.90;99799.28;4227323;28;20615;-71
2023/10/16 00:41:23;;;;;;;12.60;2.83;;;;;;;5.63;86.70;99804.25;4210932;28;20584;-74
2023/10/16 00:43:50;;;;;;;8.03;2.10;;;;;;;5.74;86.51;99808.72;4216082;28;20921;-74
2023/10/16 00:46:30;;;;;;;9.40;2.57;;;;;;;5.74;86.26;99804.16;4230549;28;21763;-71
2023/10/16 00:48:58;;;;;;;4.83;1.90;;;;;;;5.67;86.46;99811.06;4223083;28;20234;-71
2023/10/16 00:51:25;;;;;;;9.03;2.10;;;;;;;5.76;86.45;99817.50;4218342;28;20308;-72
2023/10/16 00:54:19;;;;;;;5.93;1.97;;;;;;;5.75;86.46;99830.06;4225065;28;20580;-71
2023/10/16 00:56:51;;;;;;;8.33;2.60;;;;;;;5.74;86.67;99822.13;4221190;28;20332;-74
2023/10/16 00:59:23;;;;;;;8.63;2.23;;;;;;;5.67;86.78;99817.28;4212209;28;20327;-71
2023/10/16 01:04:37;;;;;;;13.80;2.33;;;;;;;5.72;86.71;99819.59;4228677;28;20357;-72
2023/10/16 01:07:05;;;;;;;12.67;2.53;;;;;;;5.73;86.57;99807.88;4217314;28;21126;-72
2023/10/16 01:09:35;;;;;;;6.80;1.80;;;;;;;5.73;86.75;99813.25;4217386;28;21693;-72
2023/10/16 01:12:06;;;;;;;9.33;2.90;;;;;;;5.79;86.42;99819.91;4223230;28;25479;-71
2023/10/16 01:14:37;;;;;;;9.67;2.70;;;;;;;5.80;86.43;99818.91;4220548;28;20282;-71
2023/10/16 01:17:14;;;;;;;8.07;1.80;;;;;;;5.80;86.73;99816.22;4208322;28;20243;-72
2023/10/16 01:19:43;;;;;;;7.03;2.17;;;;;;;5.75;86.91;99818.47;4224242;28;20591;-72
2023/10/16 01:22:13;;;;;;;7.47;1.80;;;;;;;5.82;86.62;99811.59;4201407;28;20240;-72
2023/10/16 01:24:43;;;;;;;5.33;1.80;;;;;;;5.85;86.06;99822.91;4217152;28;21164;-72
2023/10/16 01:27:26;;;;;;;10.80;2.27;;;;;;;5.81;86.27;99820.63;4228121;28;20224;-74
2023/10/16 01:29:57;;;;;;;8.50;2.13;;;;;;;5.82;86.29;99823.16;4204435;28;25336;-72
2023/10/16 01:32:25;;;;;;;8.17;2.53;;;;;;;5.74;86.49;99822.97;4213615;28;22804;-73
2023/10/16 01:34:52;;;;;;;7.83;2.53;;;;;;;5.82;85.95;99825.84;4224502;28;20284;-71
2023/10/16 01:37:19;;;;;;;6.77;2.17;;;;;;;5.81;86.18;99824.19;4215772;28;20312;-72
2023/10/16 01:39:48;;;;;;;11.57;2.53;;;;;;;5.78;86.56;99837.84;4210837;28;22688;-71
2023/10/16 01:42:18;;;;;;;7.03;2.10;;;;;;;5.81;86.42;99836.75;4219355;28;20330;-71
2023/10/16 01:44:45;;;;;;;10.70;2.10;;;;;;;5.76;86.56;99837.13;4226530;28;20560;-71
2023/10/16 01:47:16;;;;;;;6.63;2.13;;;;;;;5.84;86.14;99839.16;4222586;28;25661;-72
2023/10/16 01:49:44;;;;;;;10.27;1.93;;;;;;;5.85;86.19;99844.41;4217479;28;20255;-72
2023/10/16 01:52:11;;;;;;;7.37;2.00;;;;;;;5.88;86.25;99832.53;4227534;28;20246;-71
2023/10/16 01:54:40;;;;;;;5.63;1.83;;;;;;;5.85;86.73;99830.97;4209463;28;20503;-73
2023/10/16 01:57:10;;;;;;;8.97;1.63;;;;;;;5.87;86.30;99844.25;4217217;28;25156;-74
2023/10/16 01:59:49;;;;;;;8.23;1.70;;;;;;;5.82;86.39;99830.38;4219606;28;20613;-72
2023/10/16 02:02:17;;;;;;;4.47;1.73;;;;;;;5.76;86.91;99836.28;4202858;28;20374;-72
2023/10/16 02:04:45;;;;;;;9.17;2.10;;;;;;;5.80;86.32;99845.78;4209587;28;20307;-71
2023/10/16 02:07:14;;;;;;;7.63;1.70;;;;;;;5.85;86.58;99852.47;4212850;28;20421;-71
2023/10/16 02:09:41;;;;;;;6.33;1.67;;;;;;;5.83;86.61;99843.69;4216669;28;20376;-73
2023/10/16 02:12:10;;;;;;;11.37;2.07;;;;;;;5.89;86.39;99853.06;4214810;28;22974;-71
2023/10/16 02:14:40;;;;;;;11.13;2.07;;;;;;;5.86;86.36;99856.84;4211898;28;22601;-73
2023/10/16 02:17:19;;;;;;;8.30;2.00;;;;;;;5.91;86.31;99852.91;4220161;28;20286;-72
2023/10/16 02:19:47;;;;;;;11.23;1.97;;;;;;;5.90;86.33;99853.88;4218474;28;20232;-72
2023/10/16 02:22:16;;;;;;;8.67;2.00;;;;;;;5.87;86.52;99866.63;4214556;28;20297;-75
2023/10/16 02:24:44;;;;;;;5.90;1.80;;;;;;;6.00;86.04;99865.59;4218836;28;20232;-71
2023/10/16 02:27:14;;;;;;;4.97;1.57;;;;;;;5.89;86.39;99866.47;4205590;28;22772;-72
2023/10/16 02:29:49;;;;;;;12.73;2.43;;;;;;;5.91;86.53;99864.53;4218392;28;20229;-71
2023/10/16 02:32:16;;;;;;;10.17;1.90;;;;;;;5.96;86.34;99866.81;4214735;28;20227;-71
2023/10/16 02:34:43;;;;;;;7.20;2.13;;;;;;;5.96;86.12;99864.97;4218382;28;20262;-70
2023/10/16 02:37:14;;;;;;;7.20;2.10;;;;;;;5.96;86.17;99875.72;4214506;28;20306;-73
2023/10/16 02:39:44;;;;;;;5.70;1.67;;;;;;;5.95;86.15;99879.38;4216300;28;25386;-72
2023/10/16 02:42:14;;;;;;;10.03;1.80;;;;;;;5.93;86.50;99875.97;4211920;28;20243;-73
2023/10/16 02:44:47;;;;;;;7.40;2.03;;;;;;;5.93;86.60;99883.19;4213613;28;20257;-73
2023/10/16 02:47:25;;;;;;;6.87;1.97;;;;;;;5.93;86.73;99878.66;4218977;28;20318;-72
2023/10/16 02:49:53;;;;;;;4.33;1.70;;;;;;;5.95;86.42;99881.22;4216135;28;20228;-71
2023/10/16 02:52:20;;;;;;;7.10;1.70;;;;;;;5.95;86.66;99884.75;4215295;28;21102;-72
2023/10/16 02:54:47;;;;;;;12.67;2.17;;;;;;;5.97;86.40;99885.50;4222649;28;20583;-70
2023/10/16 02:57:14;;;;;;;7.47;2.10;;;;;;;6.02;86.23;99874.38;4220953;28;23205;-70
2023/10/16 02:59:43;;;;;;;11.10;2.27;;;;;;;5.98;86.45;99872.91;4219774;28;20275;-73
2023/10/16 03:02:22;;;;;;;7.87;1.80;;;;;;;5.98;86.35;99884.50;4212409;28;20890;-72
2023/10/16 03:04:51;;;;;;;4.30;1.63;;;;;;;5.94;86.31;99869.63;4215055;28;20242;-70
2023/10/16 03:07:22;;;;;;;6.47;1.87;;;;;;;5.93;86.57;99878.66;4211618;28;21398;-71
2023/10/16 03:09:52;;;;;;;8.23;1.90;;;;;;;5.92;86.86;99886.84;4218054;28;20239;-70
2023/10/16 03:12:20;;;;;;;11.57;2.33;;;;;;;5.89;86.97;99884.44;4219841;28;20869;-73
2023/10/16 03:14:58;;;;;;;9.87;1.97;;;;;;;5.97;86.64;99893.53;4221156;28;22266;-72
2023/10/16 03:17:43;;;;;;;8.97;2.17;;;;;;;5.82;87.17;99893.00;4214827;28;20227;-72
2023/10/16 03:20:55;;;;;;;5.73;1.53;;;;;;;5.89;87.13;99903.25;4213835;28;20247;-73
2023/10/16 03:22:59;;;;;;;9.10;2.10;;;;;;;5.81;87.25;99891.31;4195037;28;21034;-71
2023/10/16 03:28:09;;;;;;;8.40;1.90;;;;;;;5.85;87.27;99913.41;4215589;28;20358;-72
2023/10/16 03:30:36;;;;;;;8.17;1.93;;;;;;;5.92;86.80;99911.91;4221479;28;20511;-73
2023/10/16 03:33:03;;;;;;;8.70;1.90;;;;;;;5.92;86.83;99911.91;4202773;28;21350;-70
2023/10/16 03:35:31;;;;;;;7.33;2.13;;;;;;;5.92;86.99;99911.91;4207369;28;20265;-71
2023/10/16 03:37:59;;;;;;;12.57;2.20;;;;;;;5.91;87.14;99918.25;4216627;28;20567;-70
2023/10/16 03:40:27;;;;;;;8.03;1.90;;;;;;;5.95;87.01;99906.25;4207851;28;20228;-71
2023/10/16 03:42:55;;;;;;;6.93;2.20;;;;;;;5.90;87.60;99913.00;4209088;28;21397;-71
2023/10/16 03:45:22;;;;;;;8.23;2.00;;;;;;;5.89;88.66;99924.75;4214711;28;20317;-71
2023/10/16 03:47:53;;;;;;;9.43;1.83;;;;;;;5.74;90.23;99916.97;4212636;28;22453;-70
2023/10/16 03:50:25;;;;;;;8.80;2.20;;;;;;;5.83;90.42;99929.63;4207171;28;20232;-73
2023/10/16 03:52:56;;;;;;;9.37;2.40;;;;;;;5.82;90.17;99925.25;4210602;28;21118;-71
2023/10/16 03:55:24;;;;;;;12.50;2.30;;;;;;;5.76;90.46;99931.13;4210098;28;20232;-72
2023/10/16 03:57:52;;;;;;;8.47;2.00;;;;;;;5.78;90.85;99925.66;4214488;28;20767;-70
2023/10/16 04:00:25;;;;;;;10.07;2.47;;;;;;;5.79;90.65;99928.19;4219992;28;20256;-71
2023/10/16 04:02:52;;;;;;;9.77;2.60;;;;;;;5.87;90.51;99938.28;4222905;28;21876;-73
2023/10/16 04:05:33;;;;;;;8.83;2.57;;;;;;;5.77;90.64;99927.47;4216669;28;20226;-72
2023/10/16 04:08:01;;;;;;;9.07;2.60;;;;;;;5.74;90.79;99941.13;4198517;28;20477;-70
2023/10/16 04:10:30;;;;;;;11.13;2.63;;;;;;;5.77;90.20;99942.75;4225480;28;20230;-71
2023/10/16 04:12:57;;;;;;;6.27;2.70;;;;;;;5.75;90.27;99934.78;4210486;28;20361;-72
2023/10/16 04:18:17;;;;;;;7.30;2.60;;;;;;;5.76;90.48;99941.03;4211515;28;20244;-72
2023/10/16 04:20:44;;;;;;;13.20;2.83;;;;;;;5.68;90.96;99942.53;4217754;28;20228;-71
2023/10/16 04:23:29;;;;;;;11.67;2.57;;;;;;;5.68;90.88;99945.22;4217426;28;20302;-72
2023/10/16 04:26:35;;;;;;;7.97;2.33;;;;;;;5.79;90.46;99940.75;4221233;28;20339;-70
2023/10/16 04:31:45;;;;;;;7.03;2.60;;;;;;;5.75;91.03;99958.13;4228330;28;20250;-70
2023/10/16 04:36:54;;;;;;;6.97;2.43;;;;;;;5.66;91.40;99952.53;4214486;28;20265;-73
2023/10/16 04:45:38;;;;;;;4.80;2.13;;;;;;;5.62;91.45;99950.22;4218233;28;20256;-72
2023/10/16 05:06:14;;;;;;;5.77;2.43;;;;;;;5.58;91.50;99964.91;4224978;28;25611;-76
2023/10/16 05:14:39;;;;;;;8.97;2.63;;;;;;;5.56;92.02;99962.31;4206660;28;20243;-76
2023/10/16 05:19:54;;;;;;;10.10;2.93;;;;;;;5.58;91.71;99970.28;4220535;28;22202;-76
2023/10/16 06:14:57;;;;;;;8.57;2.57;;;;;;;5.86;91.30;100031.47;4220102;28;20227;-77
2023/10/16 06:17:24;;;;;;;12.57;2.90;;;;;;;5.87;91.25;100030.50;4207270;28;25528;-76
2023/10/16 06:19:51;;;;;;;12.23;2.50;;;;;;;5.95;90.99;100024.47;4230707;28;22204;-77
2023/10/16 06:22:17;;;;;;;11.77;2.97;;;;;;;5.96;91.06;100028.84;4215944;28;20306;-76
2023/10/16 06:24:44;;;;;;;12.63;3.30;;;;;;;6.01;90.90;100033.88;4213109;28;20345;-76
2023/10/16 06:27:18;;;;;;;6.83;2.97;;;;;;;6.06;90.58;100034.34;4219689;28;21896;-77
2023/10/16 06:29:55;;;;;;;8.87;2.63;;;;;;;6.05;90.71;100032.63;4228253;28;20953;-75
2023/10/16 06:32:25;;;;;;;10.43;2.70;;;;;;;6.22;90.01;100043.81;4204941;28;20233;-75
2023/10/16 06:34:57;;;;;;;15.57;3.07;;;;;;;6.17;89.47;100038.81;4221424;28;20678;-78
2023/10/16 06:37:27;;;;;;;8.20;2.70;;;;;;;6.20;89.74;100046.63;4214810;28;23218;-76
2023/10/16 06:39:57;;;;;;;12.10;2.83;;;;;;;6.27;89.45;100030.84;4215799;28;20390;-78
2023/10/16 06:42:24;;;;;;;11.03;3.00;;;;;;;6.34;88.86;100040.09;4220309;28;21690;-77
2023/10/16 06:44:54;;;;;;;18.10;2.73;;;;;;;6.32;89.04;100042.06;4245308;28;21745;-77
2023/10/16 06:47:35;;;;;;;11.03;3.00;;;;;;;6.37;88.70;100053.28;4226546;28;20247;-77
2023/10/16 06:51:15;;;;;;;11.47;3.47;;;;;;;6.45;88.40;100045.41;4214990;28;20280;-75
2023/10/16 06:53:03;;;;;;;16.00;2.90;;;;;;;6.44;88.05;100046.38;4234876;28;21466;-75
2023/10/16 06:55:30;;;;;;;13.30;2.87;;;;;;;6.48;87.47;100050.53;4229648;28;20259;-75
2023/10/16 06:57:56;;;;;;;7.63;2.37;;;;;;;6.41;87.36;100053.88;4224295;28;20244;-74
2023/10/16 07:00:27;;;;;;;11.60;2.57;;;;;;;6.46;87.27;100065.94;4214133;28;21313;-76
2023/10/16 07:02:56;;;;;;;12.13;2.60;;;;;;;6.57;86.58;100058.81;4221608;28;20353;-75
2023/10/16 07:05:42;;;;;;;9.90;3.10;;;;;;;6.62;86.05;100057.41;4216198;28;20461;-75
2023/10/16 07:08:18;;;;;;;6.70;2.50;;;;;;;6.66;85.35;100068.75;4224119;28;20230;-76
2023/10/16 07:10:51;;;;;;;10.83;2.40;;;;;;;6.65;85.34;100067.03;4213313;28;20235;-77
2023/10/16 07:13:29;;;;;;;13.33;3.27;;;;;;;6.63;84.67;100072.56;4211342;28;21760;-76
2023/10/16 07:16:04;;;;;;;14.87;2.80;;;;;;;6.77;84.56;100082.16;4223466;28;22929;-75
2023/10/16 07:18:33;;;;;;;6.13;1.90;;;;;;;6.85;84.07;100078.78;4217649;28;20240;-77
2023/10/16 07:21:07;;;;;;;8.67;2.40;;;;;;;6.81;83.43;100082.75;4205295;28;21118;-75
2023/10/16 07:23:35;;;;;;;7.93;2.20;;;;;;;6.81;83.48;100080.06;4210469;28;20232;-76
2023/10/16 07:26:09;;;;;;;9.77;2.73;;;;;;;6.75;83.60;100097.56;4216134;28;20752;-79
2023/10/16 07:28:40;;;;;;;8.00;2.10;;;;;;;6.89;83.05;100082.94;4218584;28;20646;-75
2023/10/16 07:31:10;;;;;;;7.43;2.13;;;;;;;7.00;82.43;100098.16;4214415;28;20716;-77
2023/10/16 07:33:38;;;;;;;12.37;2.40;;;;;;;6.98;83.29;100095.59;4244681;28;20252;-77
2023/10/16 07:36:11;;;;;;;11.67;2.33;;;;;;;6.90;82.89;100094.53;4217314;28;20245;-78
2023/10/16 07:38:38;;;;;;;7.47;2.10;;;;;;;6.91;82.80;100098.94;4220717;28;25322;-79
2023/10/16 07:41:09;;;;;;;9.03;2.30;;;;;;;7.02;82.78;100098.00;4220283;28;21041;-77
2023/10/16 07:43:36;;;;;;;14.03;2.40;;;;;;;7.16;80.79;100099.53;4219912;28;22718;-80
2023/10/16 07:48:53;;;;;;;8.63;2.30;;;;;;;7.25;80.78;100094.19;4257777;28;20394;-75
2023/10/16 07:51:21;;;;;;;13.77;4.57;;;;;;;7.22;81.11;100102.50;4241482;28;20337;-81
2023/10/16 07:53:49;;;;;;;11.97;2.53;;;;;;;7.37;80.34;100102.16;4238211;28;20238;-79
2023/10/16 07:56:19;;;;;;;8.73;2.30;;;;;;;7.34;80.01;100087.13;4246651;28;21546;-82
2023/10/16 07:58:49;;;;;;;8.67;2.33;;;;;;;7.50;79.55;100099.22;4225824;28;20325;-85
2023/10/16 08:01:17;;;;;;;6.10;1.67;;;;;;;7.58;77.92;100097.59;4235230;28;20340;-81
2023/10/16 08:03:48;;;;;;;6.20;1.50;;;;;;;7.45;78.39;100086.16;4269217;28;20272;-82
2023/10/16 08:06:23;;;;;;;10.97;1.90;;;;;;;7.67;78.09;100100.41;4242283;28;20385;-80
2023/10/16 08:11:46;;;;;;;5.90;1.33;;;;;;;7.53;77.45;100080.97;4233840;28;21165;-83
2023/10/16 08:14:15;;;;;;;4.77;1.30;;;;;;;7.70;77.20;100097.47;4225245;28;20252;-80
2023/10/16 08:16:42;;;;;;;5.13;1.80;;;;;;;7.70;76.70;100103.72;4240649;28;21785;-80
2023/10/16 08:19:14;;;;;;;4.67;1.27;;;;;;;7.69;76.84;100103.84;4222437;28;20296;-79
2023/10/16 08:21:42;;;;;;;8.67;1.50;;;;;;;7.60;76.76;100100.97;4225682;28;21114;-81
2023/10/16 08:24:13;;;;;;;7.27;1.47;;;;;;;7.54;76.98;100101.53;4217761;28;20277;-81
2023/10/16 08:26:42;;;;;;;8.43;1.77;;;;;;;7.58;77.18;100107.50;4236194;28;20234;-78
2023/10/16 08:29:33;;;;;;;6.43;1.70;;;;;;;7.66;76.71;100107.66;4225871;28;20432;-82
2023/10/16 08:34:45;;;;;;;7.00;1.50;;;;;;;7.68;77.01;100112.91;4222289;28;20295;-81
2023/10/16 08:37:13;;;;;;;10.57;1.87;;;;;;;7.63;77.03;100115.16;4232403;28;21610;-80
2023/10/16 08:39:47;;;;;;;5.00;1.23;;;;;;;7.77;76.67;100115.66;4228903;28;21632;-81
2023/10/16 08:42:18;;;;;;;4.87;1.67;;;;;;;7.84;76.54;100117.78;4235869;28;20241;-81
2023/10/16 08:44:51;;;;;;;12.13;1.80;;;;;;;7.85;76.50;100119.50;4236011;28;20254;-80
2023/10/16 08:47:27;;;;;;;5.47;1.50;;;;;;;7.77;76.74;100112.97;4233998;28;20243;-79
2023/10/16 08:49:55;;;;;;;7.30;1.63;;;;;;;7.77;76.55;100125.56;4242372;28;20401;-79
2023/10/16 08:52:34;;;;;;;5.57;1.97;;;;;;;7.76;75.86;100121.16;4220031;28;20274;-78
2023/10/16 08:55:38;;;;;;;9.60;1.60;;;;;;;7.73;75.90;100118.75;4224142;28;20236;-79
2023/10/16 08:57:57;;;;;;;7.93;1.83;;;;;;;7.52;76.58;100129.59;4233009;28;22601;-79
2023/10/16 09:00:30;;;;;;;11.23;2.00;;;;;;;7.51;76.17;100125.19;4222110;28;20242;-82
2023/10/16 09:03:00;;;;;;;8.57;2.17;;;;;;;7.54;76.85;100124.94;4212458;28;20235;-77
2023/10/16 09:05:27;;;;;;;6.07;1.83;;;;;;;7.54;77.18;100123.06;4228484;28;20759;-77
2023/10/16 09:07:54;;;;;;;8.37;2.07;;;;;;;7.49;77.40;100122.63;4226197;28;23514;-77
2023/10/16 09:10:22;;;;;;;8.47;1.93;;;;;;;7.49;77.31;100127.16;4220019;28;20533;-78
2023/10/16 09:12:54;;;;;;;10.40;2.10;;;;;;;7.41;77.54;100127.84;4221761;28;20514;-78
2023/10/16 09:15:24;;;;;;;8.37;1.97;;;;;;;7.46;77.15;100120.19;4215287;28;20334;-77
2023/10/16 09:17:52;;;;;;;9.23;1.87;;;;;;;7.46;77.37;100128.28;4229075;28;20251;-78
2023/10/16 09:20:32;;;;;;;10.23;2.70;;;;;;;7.44;77.24;100128.41;4222223;28;20247;-78
2023/10/16 09:23:02;;;;;;;7.17;1.87;;;;;;;7.51;76.33;100133.25;4219130;28;20366;-74
2023/10/16 09:25:31;;;;;;;13.40;2.20;;;;;;;7.40;75.94;100132.34;4229289;28;20333;-78
2023/10/16 09:28:05;;;;;;;6.97;1.93;;;;;;;7.34;75.59;100148.22;4217985;28;20247;-75
2023/10/16 09:30:33;;;;;;;10.10;1.93;;;;;;;7.24;75.40;100146.31;4195675;28;21732;-75
2023/10/16 09:33:00;;;;;;;13.83;1.87;;;;;;;7.22;75.15;100142.88;4220482;28;20243;-77
2023/10/16 09:35:32;;;;;;;7.60;2.10;;;;;;;7.30;74.20;100150.31;4225113;28;21665;-75
2023/10/16 09:38:15;;;;;;;5.20;1.80;;;;;;;7.33;74.22;100150.03;4239300;28;20320;-74
2023/10/16 09:40:44;;;;;;;6.67;1.70;;;;;;;7.40;73.03;100148.50;4232330;28;20482;-78
2023/10/16 09:43:24;;;;;;;4.00;1.53;;;;;;;7.56;72.58;100153.44;4225827;28;20305;-73
2023/10/16 09:46:33;;;;;;;9.30;1.73;;;;;;;7.69;71.67;100144.25;4212411;28;20275;-71
2023/10/16 09:48:39;;;;;;;4.87;1.40;;;;;;;7.47;72.36;100146.16;4222057;28;20607;-75
2023/10/16 09:51:09;;;;;;;5.60;1.37;;;;;;;7.47;72.30;100146.16;4210545;28;20623;-77
2023/10/16 09:53:35;;;;;;;6.80;1.40;;;;;;;7.53;72.02;100150.16;4213244;28;20913;-76
2023/10/16 09:56:04;;;;;;;6.53;1.90;;;;;;;7.50;72.76;100151.28;4219365;28;20228;-77
2023/10/16 09:58:34;;;;;;;4.73;1.40;;;;;;;7.47;73.71;100153.38;4249600;28;20369;-74
2023/10/16 10:01:13;;;;;;;9.33;2.13;;;;;;;7.42;74.20;100164.56;4223422;28;20239;-73
2023/10/16 10:03:43;;;;;;;12.67;2.13;;;;;;;7.28;74.80;100154.97;4207678;28;23473;-76
2023/10/16 10:06:20;;;;;;;8.10;2.40;;;;;;;7.25;74.18;100156.09;4228595;28;20290;-73
2023/10/16 10:11:38;;;;;;;10.30;2.07;;;;;;;7.16;73.42;100154.19;4216855;28;20239;-74
2023/10/16 10:17:00;;;;;;;8.07;2.50;;;;;;;7.10;73.38;100169.03;4218930;28;22384;-71
2023/10/16 10:19:39;;;;;;;5.03;1.77;;;;;;;7.29;72.98;100156.69;4225350;28;21121;-73
2023/10/16 10:22:18;;;;;;;4.23;1.50;;;;;;;7.30;73.21;100158.41;4237332;28;20308;-74
2023/10/16 10:25:07;;;;;;;6.13;1.80;;;;;;;7.30;72.76;100159.25;4218800;28;20286;-72
2023/10/16 10:27:45;;;;;;;5.63;1.83;;;;;;;7.38;72.34;100152.31;4234594;28;21528;-75
2023/10/16 10:30:25;;;;;;;7.23;1.63;;;;;;;7.54;72.27;100160.78;4244944;28;20235;-74
2023/10/16 10:32:55;;;;;;;6.87;1.83;;;;;;;7.65;71.75;100159.00;4246189;28;20236;-74
2023/10/16 10:35:28;;;;;;;4.93;1.73;;;;;;;7.86;71.57;100157.09;4221215;28;20251;-74
2023/10/16 10:38:20;;;;;;;9.70;1.80;;;;;;;8.08;71.05;100147.91;4232005;28;20859;-77
2023/10/16 10:41:14;;;;;;;7.53;1.80;;;;;;;7.98;70.51;100155.13;4233789;28;20233;-75
2023/10/16 10:43:46;;;;;;;10.93;1.87;;;;;;;8.08;70.04;100150.59;4253405;28;20242;-78
2023/10/16 10:46:22;;;;;;;5.70;1.63;;;;;;;8.01;70.19;100145.91;4220105;28;20305;-79
2023/10/16 10:48:49;;;;;;;4.83;1.23;;;;;;;8.12;70.21;100144.94;4241139;28;20231;-73
2023/10/16 10:51:16;;;;;;;5.47;1.63;;;;;;;8.09;70.28;100156.88;4225590;28;20283;-73
2023/10/16 10:53:57;;;;;;;8.17;1.77;;;;;;;8.15;70.64;100145.53;4227166;28;20299;-76
2023/10/16 10:56:48;;;;;;;6.83;2.00;;;;;;;8.09;69.51;100146.06;4212771;28;20240;-73
2023/10/16 10:59:40;;;;;;;4.43;1.50;;;;;;;7.87;70.29;100156.09;4208772;28;20236;-74
2023/10/16 11:04:45;;;;;;;9.00;2.20;;;;;;;8.05;69.86;100166.19;4217006;28;21746;-73
2023/10/16 11:07:13;;;;;;;5.93;1.63;;;;;;;7.88;69.86;100163.19;4217143;28;20231;-74
2023/10/16 11:09:42;;;;;;;8.23;1.57;;;;;;;7.83;70.11;100162.72;4239069;28;22238;-75
2023/10/16 11:12:08;;;;;;;10.73;2.43;;;;;;;7.92;69.92;100161.91;4230411;28;20248;-76
2023/10/16 11:14:38;;;;;;;5.53;1.43;;;;;;;7.97;69.73;100163.38;4217816;28;20236;-69
2023/10/16 11:17:08;;;;;;;6.00;1.50;;;;;;;7.82;70.23;100161.03;4206831;28;20673;-74
2023/10/16 11:19:48;;;;;;;6.87;2.13;;;;;;;7.77;70.10;100152.50;4226148;28;20235;-71
2023/10/16 11:22:20;;;;;;;8.03;1.67;;;;;;;7.77;70.47;100166.84;4223064;28;20252;-74
2023/10/16 11:24:47;;;;;;;4.83;1.40;;;;;;;7.83;70.52;100159.19;4223742;28;21095;-71
2023/10/16 11:27:14;;;;;;;10.20;1.80;;;;;;;7.86;70.09;100159.78;4224024;28;20295;-74
2023/10/16 11:29:42;;;;;;;8.33;1.80;;;;;;;7.95;69.96;100157.25;4231697;28;22052;-78
2023/10/16 11:32:14;;;;;;;9.63;2.00;;;;;;;7.89;69.89;100158.66;4236919;28;25460;-74
2023/10/16 11:34:59;;;;;;;7.47;1.90;;;;;;;8.02;69.52;100159.25;4225058;28;20245;-76
2023/10/16 11:37:25;;;;;;;8.50;1.97;;;;;;;7.88;69.57;100163.19;4222762;28;20239;-75
2023/10/16 11:39:56;;;;;;;4.90;1.63;;;;;;;7.89;69.64;100170.28;4227141;28;20227;-77
2023/10/16 11:42:24;;;;;;;10.20;1.63;;;;;;;7.82;70.13;100154.78;4212197;28;20236;-74
2023/10/16 11:44:51;;;;;;;7.30;2.00;;;;;;;7.87;70.12;100160.63;4209825;28;20231;-74
2023/10/16 11:47:18;;;;;;;7.07;2.00;;;;;;;7.87;69.93;100156.09;4222481;28;20232;-77
2023/10/16 11:49:54;;;;;;;9.37;1.83;;;;;;;8.07;69.08;100156.13;4202293;28;22642;-77
2023/10/16 11:52:22;;;;;;;4.57;1.43;;;;;;;8.09;69.27;100152.31;4224293;28;20444;-72
2023/10/16 11:54:56;;;;;;;9.17;1.87;;;;;;;8.21;68.80;100160.28;4239871;28;20231;-77
2023/10/16 11:57:24;;;;;;;8.43;2.00;;;;;;;8.31;67.46;100163.00;4239855;28;20239;-75
2023/10/16 11:59:51;;;;;;;5.83;1.60;;;;;;;8.33;67.49;100163.72;4228872;28;20238;-79
2023/10/16 12:02:19;;;;;;;5.57;1.40;;;;;;;8.23;68.06;100163.72;4239604;28;24771;-74
2023/10/16 12:04:46;;;;;;;8.63;1.90;;;;;;;8.20;68.53;100154.03;4234272;28;21266;-75
2023/10/16 12:07:14;;;;;;;7.97;1.60;;;;;;;8.35;67.63;100164.41;4232904;28;20224;-75
2023/10/16 12:09:42;;;;;;;8.20;2.33;;;;;;;8.33;68.16;100172.66;4221850;28;21642;-69
2023/10/16 12:12:19;;;;;;;7.57;2.10;;;;;;;8.36;68.10;100179.59;4214450;28;20234;-74
2023/10/16 12:14:50;;;;;;;10.03;2.50;;;;;;;8.31;66.99;100171.09;4231134;28;21433;-71
2023/10/16 12:17:21;;;;;;;6.63;1.83;;;;;;;8.06;67.34;100176.00;4236113;28;20231;-71
2023/10/16 12:19:48;;;;;;;7.03;1.90;;;;;;;8.17;67.44;100186.69;4225284;28;26112;-71
2023/10/16 12:22:15;;;;;;;10.70;2.00;;;;;;;8.14;67.12;100170.78;4221554;28;20231;-72
2023/10/16 12:24:43;;;;;;;11.77;1.93;;;;;;;8.21;66.67;100171.91;4226902;28;21735;-69
2023/10/16 12:27:10;;;;;;;6.80;2.10;;;;;;;8.24;66.93;100168.97;4229777;28;20242;-69
2023/10/16 12:29:37;;;;;;;7.67;1.90;;;;;;;8.16;66.41;100168.81;4214710;28;26489;-71
2023/10/16 12:32:04;;;;;;;8.17;2.30;;;;;;;8.24;65.57;100170.78;4229922;28;21342;-71
2023/10/16 12:34:32;;;;;;;7.87;1.90;;;;;;;8.45;64.86;100176.09;4235476;28;20376;-70
2023/10/16 12:37:09;;;;;;;7.93;1.87;;;;;;;8.39;65.97;100174.78;4224275;28;20383;-70
2023/10/16 12:39:45;;;;;;;8.57;2.30;;;;;;;8.31;66.07;100176.50;4245611;28;20224;-70
2023/10/16 12:42:14;;;;;;;11.10;2.10;;;;;;;8.36;65.37;100174.22;4228232;28;20236;-69
2023/10/16 12:44:41;;;;;;;6.60;1.80;;;;;;;8.38;65.44;100170.38;4232052;28;20251;-70
2023/10/16 12:47:07;;;;;;;7.17;1.60;;;;;;;8.42;64.47;100168.28;4244379;28;21156;-71
2023/10/16 12:49:34;;;;;;;9.40;2.20;;;;;;;8.47;64.34;100168.75;4233213;28;20254;-70
2023/10/16 12:52:01;;;;;;;9.50;1.73;;;;;;;8.45;63.91;100175.25;4215912;28;21332;-71
2023/10/16 12:54:28;;;;;;;9.23;2.67;;;;;;;8.56;63.69;100167.03;4221964;28;20373;-70
2023/10/16 12:56:57;;;;;;;13.20;3.40;;;;;;;8.63;64.06;100175.44;4212647;28;20362;-70
2023/10/16 12:59:26;;;;;;;9.60;2.10;;;;;;;8.56;62.86;100173.31;4213635;28;20237;-71
2023/10/16 13:01:54;;;;;;;8.77;2.00;;;;;;;8.62;62.74;100166.47;4222972;28;20404;-71
2023/10/16 13:04:24;;;;;;;6.53;1.80;;;;;;;8.64;62.58;100177.97;4217560;28;20286;-69
2023/10/16 13:06:51;;;;;;;7.60;1.40;;;;;;;8.48;63.45;100174.97;4232921;28;20307;-70
2023/10/16 13:09:18;;;;;;;6.13;1.73;;;;;;;8.67;64.34;100182.22;4223471;28;22155;-71
2023/10/16 13:11:46;;;;;;;7.83;1.60;;;;;;;8.76;62.40;100178.69;4229517;28;20238;-73
2023/10/16 13:14:13;;;;;;;5.07;1.80;;;;;;;8.66;62.86;100181.41;4225884;28;20245;-71
2023/10/16 13:16:40;;;;;;;10.07;1.83;;;;;;;8.73;62.54;100181.66;4216710;28;20233;-69
2023/10/16 13:19:10;;;;;;;4.80;1.70;;;;;;;8.52;64.32;100173.72;4243760;28;20590;-70
2023/10/16 13:21:41;;;;;;;7.83;1.50;;;;;;;8.41;65.33;100172.81;4237334;28;21151;-73
2023/10/16 13:24:10;;;;;;;11.57;1.67;;;;;;;8.34;65.44;100176.22;4218703;28;20281;-73
2023/10/16 13:26:39;;;;;;;10.70;2.00;;;;;;;8.30;65.95;100180.16;4217447;28;22901;-71
2023/10/16 13:29:08;;;;;;;8.67;1.50;;;;;;;8.33;65.74;100175.34;4232156;28;20244;-71
2023/10/16 13:31:36;;;;;;;3.33;1.50;;;;;;;8.35;65.42;100184.16;4225470;28;20302;-70
2023/10/16 13:34:03;;;;;;;6.90;1.97;;;;;;;8.34;64.99;100181.63;4222411;28;20391;-70
2023/10/16 13:36:35;;;;;;;7.07;2.10;;;;;;;8.40;63.40;100189.97;4229564;28;20235;-71
2023/10/16 13:39:08;;;;;;;12.13;2.37;;;;;;;8.43;63.88;100186.16;4221062;28;21891;-69
2023/10/16 13:41:50;;;;;;;12.13;2.90;;;;;;;8.49;63.55;100185.66;4235889;28;22349;-70
2023/10/16 13:44:22;;;;;;;11.20;3.13;;;;;;;8.43;64.43;100199.63;4234143;28;20892;-69
2023/10/16 13:46:49;;;;;;;9.73;2.20;;;;;;;8.49;63.56;100200.97;4236203;28;20231;-71
2023/10/16 13:49:17;;;;;;;7.27;2.17;;;;;;;8.60;63.52;100192.75;4224889;28;20323;-70